Map

Track Data

SID SEASON NUMBER BASIN SUBBASIN NAME ISO_TIME NATURE LAT LON WMO_WIND WMO_PRES WMO_AGENCY TRACK_TYPE DIST2LAND LANDFALL IFLAG USA_AGENCY USA_ATCF_ID USA_LAT USA_LON USA_RECORD USA_STATUS USA_WIND USA_PRES USA_SSHS USA_R34_NE USA_R34_SE USA_R34_SW USA_R34_NW USA_R50_NE USA_R50_SE USA_R50_SW USA_R50_NW USA_R64_NE USA_R64_SE USA_R64_SW USA_R64_NW USA_POCI USA_ROCI USA_RMW USA_EYE TOKYO_LAT TOKYO_LON TOKYO_GRADE TOKYO_WIND TOKYO_PRES TOKYO_R50_DIR TOKYO_R50_LONG TOKYO_R50_SHORT TOKYO_R30_DIR TOKYO_R30_LONG TOKYO_R30_SHORT TOKYO_LAND CMA_LAT CMA_LON CMA_CAT CMA_WIND CMA_PRES HKO_LAT HKO_LON HKO_CAT HKO_WIND HKO_PRES NEWDELHI_LAT NEWDELHI_LON NEWDELHI_GRADE NEWDELHI_WIND NEWDELHI_PRES NEWDELHI_CI NEWDELHI_DP NEWDELHI_POCI REUNION_LAT REUNION_LON REUNION_TYPE REUNION_WIND REUNION_PRES REUNION_TNUM REUNION_CI REUNION_RMW REUNION_R34_NE REUNION_R34_SE REUNION_R34_SW REUNION_R34_NW REUNION_R50_NE REUNION_R50_SE REUNION_R50_SW REUNION_R50_NW REUNION_R64_NE REUNION_R64_SE REUNION_R64_SW REUNION_R64_NW BOM_LAT BOM_LON BOM_TYPE BOM_WIND BOM_PRES BOM_TNUM BOM_CI BOM_RMW BOM_R34_NE BOM_R34_SE BOM_R34_SW BOM_R34_NW BOM_R50_NE BOM_R50_SE BOM_R50_SW BOM_R50_NW BOM_R64_NE BOM_R64_SE BOM_R64_SW BOM_R64_NW BOM_ROCI BOM_POCI BOM_EYE BOM_POS_METHOD BOM_PRES_METHOD NADI_LAT NADI_LON NADI_CAT NADI_WIND NADI_PRES WELLINGTON_LAT WELLINGTON_LON WELLINGTON_WIND WELLINGTON_PRES DS824_LAT DS824_LON DS824_STAGE DS824_WIND DS824_PRES TD9636_LAT TD9636_LON TD9636_STAGE TD9636_WIND TD9636_PRES TD9635_LAT TD9635_LON TD9635_WIND TD9635_PRES TD9635_ROCI NEUMANN_LAT NEUMANN_LON NEUMANN_CLASS NEUMANN_WIND NEUMANN_PRES MLC_LAT MLC_LON MLC_CLASS MLC_WIND MLC_PRES USA_GUST BOM_GUST BOM_GUST_PER REUNION_GUST REUNION_GUST_PER USA_SEAHGT USA_SEARAD_NE USA_SEARAD_SE USA_SEARAD_SW USA_SEARAD_NW STORM_SPEED STORM_DIR
1948161N15138 1948 37 WP MM NADINE 1948-06-09 00:00:00 TS 15.0000 138.000 main 1387 1379 O________OOO__ jtwc_wp WP041948 15.0000 138.000 25 -1 15.0000 138.000 TC 25 15.0000 138.000 1 25 15.0000 138.000 25 1005 60 5 325
1948161N15138 1948 37 WP MM NADINE 1948-06-09 03:00:00 TS 15.2108 137.846 main 1370 1363 P________PPP__ WP041948 15.1950 137.863 27 -1 15.1950 137.863 TC 27 15.2582 137.798 1 28 15.1950 137.863 27 1003 90 5 324
1948161N15138 1948 37 WP MM NADINE 1948-06-09 06:00:00 TS 15.4232 137.677 main 1365 1350 O________OPO__ jtwc_wp WP041948 15.4000 137.700 30 -1 15.4000 137.700 TC 30 15.4930 137.606 1 32 15.4000 137.700 30 1002 120 5 320
1948161N15138 1948 37 WP MM NADINE 1948-06-09 09:00:00 TS 15.6316 137.484 main 1350 1335 P________PPP__ WP041948 15.6150 137.500 35 0 15.6150 137.500 TC 35 15.6813 137.436 1 36 15.6150 137.500 35 999 150 5 316
1948161N15138 1948 37 WP MM NADINE 1948-06-09 12:00:00 TS 15.8000 137.300 main 1335 1325 O________OOO__ jtwc_wp WP041948 15.8000 137.300 40 0 15.8000 137.300 TC 40 15.8000 137.300 2 40 15.8000 137.300 40 997 180 4 311
1948161N15138 1948 37 WP MM NADINE 1948-06-09 15:00:00 TS 15.9074 137.157 main 1328 1311 P________PPP__ WP041948 15.9300 137.142 45 0 15.9300 137.142 TC 45 15.8398 137.199 2 45 15.9300 137.142 45 993 210 3 301
1948161N15138 1948 37 WP MM NADINE 1948-06-09 18:00:00 TS 15.9617 137.024 main 1311 1301 O________OPO__ jtwc_wp WP041948 16.0000 137.000 50 0 16.0000 137.000 TC 50 15.8466 137.096 2 50 16.0000 137.000 50 990 240 2 283
1948161N15138 1948 37 WP MM NADINE 1948-06-09 21:00:00 TS 15.9586 136.924 main 1301 1280 P________PPP__ WP041948 15.9847 136.917 55 0 15.9847 136.917 TC 55 15.8802 136.945 2 55 15.9847 136.917 55 988 240 3 277
1948161N15138 1948 37 WP MM NADINE 1948-06-10 00:00:00 TS 16.0000 136.700 main 1280 1233 O________OOO__ jtwc_wp WP041948 16.0000 136.700 60 0 16.0000 136.700 TC 60 16.0000 136.700 2 60 16.0000 136.700 60 986 240 8 285
1948161N15138 1948 37 WP MM NADINE 1948-06-10 03:00:00 TS 16.1500 136.166 main 1237 1185 P________PPP__ WP041948 16.1180 136.137 55 0 16.1180 136.137 TC 55 16.2462 136.253 2 57 16.1180 136.137 55 986 210 12 292
1948161N15138 1948 37 WP MM NADINE 1948-06-10 06:00:00 TS 16.4467 135.554 main 1185 1154 O________OPO__ jtwc_wp WP041948 16.4000 135.500 50 0 16.4000 135.500 TC 50 16.5868 135.716 2 55 16.4000 135.500 50 987 180 13 307
1948161N15138 1948 37 WP MM NADINE 1948-06-10 09:00:00 TS 16.9365 135.068 main 1159 1147 P________PPP__ WP041948 16.9124 135.033 50 0 16.9124 135.033 TC 50 17.0088 135.172 2 52 16.9124 135.033 50 989 180 13 322
1948161N15138 1948 37 WP MM NADINE 1948-06-10 12:00:00 TS 17.5000 134.700 main 1153 1149 O________OOO__ jtwc_wp WP041948 17.5000 134.700 50 0 17.5000 134.700 TC 50 17.5000 134.700 2 50 17.5000 134.700 50 992 180 11 331
1948161N15138 1948 37 WP MM NADINE 1948-06-10 15:00:00 TS 17.9343 134.498 main 1157 1157 P________PPP__ WP041948 17.9198 134.527 47 0 17.9198 134.527 TC 47 17.9779 134.412 2 47 17.9198 134.527 47 993 210 10 340
1948161N15138 1948 37 WP MM NADINE 1948-06-10 18:00:00 TS 18.4317 134.352 main 1179 1175 O________OPO__ jtwc_wp WP041948 18.4000 134.400 45 0 18.4000 134.400 TC 45 18.5269 134.208 2 45 18.4000 134.400 45 994 240 12 344
1948161N15138 1948 37 WP MM NADINE 1948-06-10 21:00:00 TS 19.0969 134.136 main 1186 1186 P________PPP__ WP041948 19.0751 134.165 42 0 19.0751 134.165 TC 42 19.1625 134.050 2 42 19.0751 134.165 42 995 300 15 344
1948161N15138 1948 37 WP MM NADINE 1948-06-11 00:00:00 TS 19.9000 133.900 main 1213 1188 O________OOO__ jtwc_wp WP041948 19.9000 133.900 40 0 19.9000 133.900 TC 40 19.9000 133.900 2 40 19.9000 133.900 40 996 360 18 345
1948161N15138 1948 37 WP MM NADINE 1948-06-11 03:00:00 TS 20.8019 133.658 main 1178 1072 P________PPP__ WP041948 20.8200 133.635 37 0 20.8200 133.635 TC 37 20.7474 133.729 2 38 20.8200 133.635 37 997 360 19 347
1948161N15138 1948 37 WP MM NADINE 1948-06-11 06:00:00 TS 21.7766 133.427 main 1061 959 O________OPO__ jtwc_wp WP041948 21.8000 133.400 35 0 21.8000 133.400 TC 35 21.6830 133.534 2 37 21.8000 133.400 35 998 360 20 349
1948161N15138 1948 37 WP MM NADINE 1948-06-11 09:00:00 TS 22.7331 133.241 main 959 859 P________PPP__ WP041948 22.7425 133.227 35 0 22.7425 133.227 TC 35 22.6771 133.322 2 36 22.7425 133.227 35 999 330 20 351
1948161N15138 1948 37 WP MM NADINE 1948-06-11 12:00:00 TS 23.7000 133.100 main 848 749 O________OOO__ jtwc_wp WP041948 23.7000 133.100 35 0 23.7000 133.100 TC 35 23.7000 133.100 2 35 23.7000 133.100 35 1000 300 20 354
1948161N15138 1948 37 WP MM NADINE 1948-06-11 15:00:00 TS 24.6900 132.995 main 738 640 P________P_P__ WP041948 24.6900 132.995 32 -1 24.6900 132.995 TC 32 2 24.6900 132.995 32 1000 270 20 355
1948161N15138 1948 37 WP MM NADINE 1948-06-11 18:00:00 TS 25.7000 132.900 main 629 O________O_O__ jtwc_wp WP041948 25.7000 132.900 30 -1 25.7000 132.900 TC 30 2 25.7000 132.900 30 1001 240 20 355

Digital Typhoon Data and Search

About IBTrACS Database

This database is a web-friendly format of International Best Track Archive for Climate Stewardship (IBTrACS), a global best track data archive curated by NOAA dating back to 1842.

Updated: 2021-10-21